createdAt,value
2019-05-30T00:00:30.881Z,983.22
2019-05-30T00:01:30.904Z,983.21
2019-05-30T00:02:30.893Z,983.18
2019-05-30T00:03:30.869Z,983.16
2019-05-30T00:04:30.869Z,983.20
2019-05-30T00:05:30.923Z,983.18
2019-05-30T00:06:30.913Z,983.18
2019-05-30T00:07:30.908Z,983.23
2019-05-30T00:08:30.900Z,983.21
2019-05-30T00:09:30.906Z,983.29
2019-05-30T00:10:30.894Z,983.20
2019-05-30T00:11:30.889Z,983.22
2019-05-30T00:12:30.888Z,983.24
2019-05-30T00:13:30.910Z,983.21
2019-05-30T00:14:30.918Z,983.21
2019-05-30T00:15:30.885Z,983.21
2019-05-30T00:16:30.946Z,983.26
2019-05-30T00:17:30.901Z,983.35
2019-05-30T00:18:30.930Z,983.25
2019-05-30T00:19:33.811Z,983.31
2019-05-30T00:20:30.936Z,983.23
2019-05-30T00:21:30.957Z,983.22
2019-05-30T00:22:30.901Z,983.26
2019-05-30T00:23:30.939Z,983.24
2019-05-30T00:24:30.940Z,983.20
2019-05-30T00:25:30.906Z,983.20
2019-05-30T00:26:30.971Z,983.25
2019-05-30T00:27:30.957Z,983.25
2019-05-30T00:28:30.929Z,983.22
2019-05-30T00:29:30.941Z,983.24
2019-05-30T00:30:30.895Z,983.27
2019-05-30T00:31:30.933Z,983.29
2019-05-30T00:32:30.901Z,983.32
2019-05-30T00:33:30.941Z,983.29
2019-05-30T00:34:30.941Z,983.27
2019-05-30T00:35:30.944Z,983.25
2019-05-30T00:36:30.951Z,983.25
2019-05-30T00:37:31.239Z,983.28
2019-05-30T00:38:30.966Z,983.19
2019-05-30T00:39:30.944Z,983.29
2019-05-30T00:40:30.974Z,983.19
2019-05-30T00:41:30.987Z,983.27
2019-05-30T00:42:30.979Z,983.26
2019-05-30T00:43:30.993Z,983.27
2019-05-30T00:44:30.937Z,983.28
2019-05-30T00:45:30.936Z,983.23
2019-05-30T00:46:30.917Z,983.29
2019-05-30T00:47:30.919Z,983.27
2019-05-30T00:48:31.024Z,983.25
2019-05-30T00:49:30.960Z,983.27
2019-05-30T00:50:30.929Z,983.25
2019-05-30T00:51:30.940Z,983.27
2019-05-30T00:52:30.938Z,983.26
2019-05-30T00:53:30.979Z,983.26
2019-05-30T00:54:30.966Z,983.23
2019-05-30T00:55:30.972Z,983.18
2019-05-30T00:56:30.965Z,983.23
2019-05-30T00:57:30.927Z,983.25
2019-05-30T00:58:30.981Z,983.22
2019-05-30T00:59:30.963Z,983.17
2019-05-30T01:00:42.564Z,983.24
2019-05-30T01:01:30.923Z,983.13
2019-05-30T01:02:30.974Z,983.18
2019-05-30T01:03:30.995Z,983.23
2019-05-30T01:04:31.255Z,983.15
2019-05-30T01:05:30.990Z,983.17
2019-05-30T01:06:30.989Z,983.19
2019-05-30T01:07:31.028Z,983.13
2019-05-30T01:08:30.992Z,983.29
2019-05-30T01:09:31.007Z,983.22
2019-05-30T01:10:30.967Z,983.30
2019-05-30T01:11:30.947Z,983.32
2019-05-30T01:12:30.955Z,983.26
2019-05-30T01:13:30.948Z,983.31
2019-05-30T01:14:31.008Z,983.33
2019-05-30T01:15:31.000Z,983.34
2019-05-30T01:16:30.978Z,983.29
2019-05-30T01:17:31.001Z,983.31
2019-05-30T01:18:30.976Z,983.34
2019-05-30T01:19:30.999Z,983.31
2019-05-30T01:20:31.015Z,983.40
2019-05-30T01:21:30.995Z,983.29
2019-05-30T01:22:30.996Z,983.34
2019-05-30T01:23:31.002Z,983.37
2019-05-30T01:24:31.004Z,983.36
2019-05-30T01:25:31.004Z,983.31
2019-05-30T01:26:30.972Z,983.34
2019-05-30T01:27:30.968Z,983.32
2019-05-30T01:28:30.966Z,983.33
2019-05-30T01:29:31.002Z,983.34
2019-05-30T01:30:31.020Z,983.34
2019-05-30T01:31:31.030Z,983.33
2019-05-30T01:32:31.010Z,983.32
2019-05-30T01:33:31.020Z,983.32
2019-05-30T01:34:31.001Z,983.27
2019-05-30T01:35:30.995Z,983.32
2019-05-30T01:36:31.053Z,983.33
2019-05-30T01:37:31.025Z,983.32
2019-05-30T01:38:31.031Z,983.30
2019-05-30T01:39:31.017Z,983.30
2019-05-30T01:40:31.046Z,983.36
2019-05-30T01:41:31.044Z,983.35
2019-05-30T01:42:31.048Z,983.31
2019-05-30T01:43:31.020Z,983.33
2019-05-30T01:44:30.996Z,983.34
2019-05-30T01:45:31.024Z,983.35
2019-05-30T01:46:31.003Z,983.32
2019-05-30T01:47:31.025Z,983.41
2019-05-30T01:48:30.978Z,983.30
2019-05-30T01:49:31.023Z,983.33
2019-05-30T01:50:31.057Z,983.36
2019-05-30T01:51:31.065Z,983.31
2019-05-30T01:52:31.071Z,983.35
2019-05-30T01:53:31.045Z,983.30
2019-05-30T01:54:31.003Z,983.35
2019-05-30T01:55:31.036Z,983.31
2019-05-30T01:56:31.278Z,983.35
2019-05-30T01:57:31.026Z,983.33
2019-05-30T01:58:31.010Z,983.29
2019-05-30T01:59:30.992Z,983.36
2019-05-30T02:00:31.018Z,983.34
2019-05-30T02:01:31.075Z,983.39
2019-05-30T02:02:31.050Z,983.32
2019-05-30T02:03:31.029Z,983.31
2019-05-30T02:04:31.044Z,983.38
2019-05-30T02:05:31.045Z,983.32
2019-05-30T02:06:31.038Z,983.35
2019-05-30T02:07:30.999Z,983.32
2019-05-30T02:08:31.043Z,983.34
2019-05-30T02:09:31.049Z,983.32
2019-05-30T02:10:31.060Z,983.28
2019-05-30T02:11:31.062Z,983.34
2019-05-30T02:12:31.070Z,983.31
2019-05-30T02:13:31.051Z,983.28
2019-05-30T02:14:31.060Z,983.36
2019-05-30T02:15:31.014Z,983.34
2019-05-30T02:16:31.086Z,983.37
2019-05-30T02:17:31.081Z,983.38
2019-05-30T02:18:31.072Z,983.44
2019-05-30T02:19:31.064Z,983.40
2019-05-30T02:20:31.036Z,983.35
2019-05-30T02:21:31.103Z,983.36
2019-05-30T02:22:31.020Z,983.36
2019-05-30T02:23:31.042Z,983.37
2019-05-30T02:24:31.043Z,983.45
2019-05-30T02:25:31.044Z,983.37
2019-05-30T02:26:31.116Z,983.42
2019-05-30T02:27:31.069Z,983.40
2019-05-30T02:28:31.034Z,983.40
2019-05-30T02:29:31.070Z,983.47
2019-05-30T02:30:31.095Z,983.40
2019-05-30T02:31:39.176Z,983.40
2019-05-30T02:32:31.030Z,983.49
2019-05-30T02:33:31.052Z,983.49
2019-05-30T02:34:31.054Z,983.49
2019-05-30T02:35:31.054Z,983.39
2019-05-30T02:36:31.111Z,983.41
2019-05-30T02:37:31.086Z,983.44
2019-05-30T02:38:31.068Z,983.46
2019-05-30T02:39:31.101Z,983.46
2019-05-30T02:40:31.082Z,983.53
2019-05-30T02:41:31.109Z,983.53
2019-05-30T02:42:31.065Z,983.49
2019-05-30T02:43:31.108Z,983.56
2019-05-30T02:44:31.110Z,983.53
2019-05-30T02:45:31.043Z,983.61
2019-05-30T02:46:31.144Z,983.64
2019-05-30T02:47:31.051Z,983.64
2019-05-30T02:48:31.098Z,983.63
2019-05-30T02:49:31.099Z,983.66
2019-05-30T02:50:31.072Z,983.65
2019-05-30T02:51:31.105Z,983.59
2019-05-30T02:52:31.074Z,983.67
2019-05-30T02:53:31.090Z,983.62
2019-05-30T02:54:31.097Z,983.64
2019-05-30T02:55:31.099Z,983.66
2019-05-30T02:56:31.083Z,983.63
2019-05-30T02:57:31.110Z,983.67
2019-05-30T02:58:31.050Z,983.63
2019-05-30T02:59:31.372Z,983.65
2019-05-30T03:00:31.103Z,983.67
2019-05-30T03:01:31.087Z,983.60
2019-05-30T03:02:31.104Z,983.63
2019-05-30T03:03:31.139Z,983.68
2019-05-30T03:04:31.145Z,983.67
2019-05-30T03:05:31.068Z,983.64
2019-05-30T03:06:31.129Z,983.66
2019-05-30T03:07:31.145Z,983.65
2019-05-30T03:08:31.078Z,983.66
2019-05-30T03:09:31.147Z,983.64
2019-05-30T03:10:31.102Z,983.69
2019-05-30T03:11:31.080Z,983.71
2019-05-30T03:12:31.137Z,983.71
2019-05-30T03:13:31.137Z,983.72
2019-05-30T03:14:31.097Z,983.67
2019-05-30T03:15:31.104Z,983.75
2019-05-30T03:16:31.121Z,983.79
2019-05-30T03:17:31.139Z,983.76
2019-05-30T03:18:31.138Z,983.74
2019-05-30T03:19:31.148Z,983.70
2019-05-30T03:20:31.130Z,983.78
2019-05-30T03:21:31.163Z,983.70
2019-05-30T03:22:31.163Z,983.79
2019-05-30T03:23:31.143Z,983.72
2019-05-30T03:24:31.140Z,983.75
2019-05-30T03:25:31.088Z,983.75
2019-05-30T03:26:31.083Z,983.72
2019-05-30T03:27:31.160Z,983.80
2019-05-30T03:28:31.110Z,983.77
2019-05-30T03:29:31.098Z,983.78
2019-05-30T03:30:31.110Z,983.78
2019-05-30T03:31:31.105Z,983.84
2019-05-30T03:33:02.406Z,983.85
2019-05-30T03:33:38.801Z,983.87
2019-05-30T03:34:31.145Z,983.82
2019-05-30T03:35:40.262Z,983.81
2019-05-30T03:36:32.026Z,983.84
2019-05-30T03:37:31.535Z,983.81
2019-05-30T03:38:31.105Z,983.89
2019-05-30T03:39:31.101Z,983.91
2019-05-30T03:40:32.039Z,983.85
2019-05-30T03:41:31.142Z,983.87
2019-05-30T03:42:31.158Z,983.89
2019-05-30T03:54:54.077Z,984.04
2019-05-30T03:55:54.112Z,984.04
2019-05-30T03:56:54.112Z,984.05
2019-05-30T03:57:54.118Z,984.07
2019-05-30T03:58:54.120Z,984.05
2019-05-30T03:59:54.117Z,984.10
2019-05-30T04:00:54.118Z,984.15
2019-05-30T04:01:54.151Z,984.14
2019-05-30T04:02:58.003Z,984.15
2019-05-30T04:03:54.116Z,984.14
2019-05-30T04:04:54.131Z,984.11
2019-05-30T04:05:54.155Z,984.12
2019-05-30T04:06:54.122Z,984.15
2019-05-30T04:07:54.124Z,984.15
2019-05-30T04:08:54.159Z,984.15
2019-05-30T04:09:54.098Z,984.19
2019-05-30T04:10:54.147Z,984.15
2019-05-30T04:11:54.096Z,984.15
2019-05-30T04:12:54.164Z,984.12
2019-05-30T04:13:54.157Z,984.17
2019-05-30T04:14:54.120Z,984.15
2019-05-30T04:15:54.144Z,984.19
2019-05-30T04:16:54.491Z,984.25
2019-05-30T04:17:54.136Z,984.24
2019-05-30T04:18:54.172Z,984.20
2019-05-30T04:19:54.141Z,984.32
2019-05-30T04:20:54.126Z,984.34
2019-05-30T04:21:54.174Z,984.35
2019-05-30T04:22:54.134Z,984.34
2019-05-30T04:23:54.147Z,984.40
2019-05-30T04:24:54.145Z,984.33
2019-05-30T04:25:54.158Z,984.38
2019-05-30T04:26:54.290Z,984.32
2019-05-30T04:27:54.175Z,984.38
2019-05-30T04:28:54.154Z,984.35
2019-05-30T04:29:54.147Z,984.35
2019-05-30T04:30:54.164Z,984.32
2019-05-30T04:31:54.194Z,984.43
2019-05-30T04:32:54.157Z,984.31
2019-05-30T04:33:54.139Z,984.39
2019-05-30T04:34:54.216Z,984.45
2019-05-30T04:35:54.190Z,984.35
2019-05-30T04:36:54.224Z,984.40
2019-05-30T04:37:54.160Z,984.38
2019-05-30T04:38:54.193Z,984.41
2019-05-30T04:39:54.326Z,984.44
2019-05-30T04:40:54.162Z,984.47
2019-05-30T04:41:54.566Z,984.46
2019-05-30T04:42:54.131Z,984.44
2019-05-30T04:43:54.184Z,984.49
2019-05-30T04:44:54.140Z,984.47
2019-05-30T04:45:54.157Z,984.53
2019-05-30T04:46:54.202Z,984.55
2019-05-30T04:47:54.172Z,984.45
2019-05-30T04:48:54.215Z,984.57
2019-05-30T04:49:54.175Z,984.58
2019-05-30T04:50:54.152Z,984.59
2019-05-30T04:51:54.198Z,984.60
2019-05-30T04:52:54.187Z,984.51
2019-05-30T04:53:54.197Z,984.56
2019-05-30T04:54:54.187Z,984.58
2019-05-30T04:55:54.191Z,984.52
2019-05-30T04:56:54.235Z,984.56
2019-05-30T04:57:54.194Z,984.54
2019-05-30T04:58:54.226Z,984.54
2019-05-30T04:59:54.203Z,984.54
2019-05-30T05:00:54.187Z,984.56
2019-05-30T05:01:54.184Z,984.52
2019-05-30T05:02:54.245Z,984.55
2019-05-30T05:03:54.231Z,984.52
2019-05-30T05:04:54.185Z,984.57
2019-05-30T05:05:54.202Z,984.52
2019-05-30T05:06:54.225Z,984.59
2019-05-30T05:07:54.225Z,984.56
2019-05-30T05:08:54.223Z,984.56
2019-05-30T05:09:54.199Z,984.61
2019-05-30T05:10:54.246Z,984.52
2019-05-30T05:11:54.235Z,984.54
2019-05-30T05:12:54.248Z,984.53
2019-05-30T05:13:54.204Z,984.55
2019-05-30T05:14:54.218Z,984.63
2019-05-30T05:15:54.204Z,984.60
2019-05-30T05:16:54.211Z,984.66
2019-05-30T05:17:54.228Z,984.64
2019-05-30T05:18:54.255Z,984.58
2019-05-30T05:19:54.220Z,984.58
2019-05-30T05:20:54.232Z,984.60
2019-05-30T05:21:54.266Z,984.53
2019-05-30T05:22:54.236Z,984.57
2019-05-30T05:23:54.240Z,984.55
2019-05-30T05:24:54.203Z,984.58
2019-05-30T05:26:00.806Z,984.59
2019-05-30T05:26:54.215Z,984.64
2019-05-30T05:27:54.262Z,984.57
2019-05-30T05:28:54.203Z,984.60
2019-05-30T05:29:54.247Z,984.58
2019-05-30T05:30:54.242Z,984.57
2019-05-30T05:31:54.243Z,984.57
2019-05-30T05:32:54.203Z,984.62
2019-05-30T05:33:57.117Z,984.60
2019-05-30T05:34:54.253Z,984.56
2019-05-30T05:35:54.224Z,984.60
2019-05-30T05:36:54.242Z,984.54
2019-05-30T05:37:54.255Z,984.52
2019-05-30T05:38:54.241Z,984.55
2019-05-30T05:39:54.270Z,984.55
2019-05-30T05:40:54.255Z,984.54
2019-05-30T05:41:54.229Z,984.54
2019-05-30T05:42:54.321Z,984.57
2019-05-30T05:43:54.330Z,984.54
2019-05-30T05:44:54.284Z,984.59
2019-05-30T05:45:54.277Z,984.53
2019-05-30T05:46:54.262Z,984.62
2019-05-30T05:47:54.254Z,984.66
2019-05-30T05:48:54.304Z,984.62
2019-05-30T05:49:54.357Z,984.72
2019-05-30T05:50:54.312Z,984.67
2019-05-30T05:51:54.243Z,984.72
2019-05-30T05:52:54.239Z,984.75
2019-05-30T05:53:54.222Z,984.70
2019-05-30T05:54:54.242Z,984.66
2019-05-30T05:55:54.303Z,984.69
2019-05-30T05:56:54.255Z,984.72
2019-05-30T05:57:54.228Z,984.67
2019-05-30T05:58:54.271Z,984.69
2019-05-30T05:59:54.285Z,984.70
2019-05-30T06:00:54.288Z,984.61
2019-05-30T06:01:54.288Z,984.69
2019-05-30T06:02:54.310Z,984.75
2019-05-30T06:03:54.263Z,984.78
2019-05-30T06:04:54.281Z,984.75
2019-05-30T06:05:54.281Z,984.75
2019-05-30T06:06:54.278Z,984.71
2019-05-30T06:07:54.268Z,984.77
2019-05-30T06:08:54.295Z,984.73
2019-05-30T06:09:54.287Z,984.75
2019-05-30T06:10:54.274Z,984.67
2019-05-30T06:11:54.283Z,984.74
2019-05-30T06:12:54.300Z,984.73
2019-05-30T06:13:54.283Z,984.73
2019-05-30T06:14:54.288Z,984.69
2019-05-30T06:15:54.285Z,984.71
2019-05-30T06:16:55.831Z,984.73
2019-05-30T06:17:54.310Z,984.75
2019-05-30T06:18:54.280Z,984.77
2019-05-30T06:19:58.112Z,984.75
2019-05-30T06:20:54.344Z,984.82
2019-05-30T06:21:56.349Z,984.74
2019-05-30T06:22:57.073Z,984.78
2019-05-30T06:23:54.292Z,984.77
2019-05-30T06:24:54.293Z,984.75
2019-05-30T06:25:54.346Z,984.78
2019-05-30T06:26:57.301Z,984.82
2019-05-30T06:27:58.107Z,984.79
2019-05-30T06:28:58.668Z,984.78
2019-05-30T06:29:58.613Z,984.84
2019-05-30T06:30:54.311Z,984.74
2019-05-30T06:31:56.662Z,984.77
2019-05-30T06:34:09.279Z,984.79
2019-05-30T06:38:54.312Z,984.80
2019-05-30T06:46:48.665Z,984.89
2019-05-30T06:53:45.685Z,984.85
2019-05-30T06:54:45.700Z,984.79
2019-05-30T06:55:47.810Z,984.82
2019-05-30T06:56:45.750Z,984.83
2019-05-30T06:57:45.751Z,984.81
2019-05-30T06:59:45.763Z,984.86
2019-05-30T07:00:45.709Z,984.86
2019-05-30T07:01:45.745Z,984.83
2019-05-30T07:02:45.704Z,984.88
2019-05-30T07:04:51.543Z,984.86
2019-05-30T07:05:46.027Z,984.84
2019-05-30T07:06:45.869Z,984.85
2019-05-30T07:07:45.877Z,984.85
2019-05-30T07:09:45.799Z,984.89
2019-05-30T07:10:45.741Z,984.81
2019-05-30T07:11:45.769Z,984.89
2019-05-30T07:12:45.713Z,984.90
2019-05-30T07:15:46.050Z,984.92
2019-05-30T07:16:45.703Z,984.86
2019-05-30T07:17:45.751Z,984.85
2019-05-30T07:18:45.712Z,984.89
2019-05-30T07:20:45.746Z,984.94
2019-05-30T07:21:45.737Z,984.97
2019-05-30T07:22:45.730Z,984.93
2019-05-30T07:23:45.720Z,984.91
2019-05-30T07:25:45.803Z,984.96
2019-05-30T07:26:45.814Z,984.93
2019-05-30T07:27:45.808Z,985.01
2019-05-30T07:28:45.815Z,984.98
2019-05-30T07:31:45.723Z,984.98
2019-05-30T07:32:45.735Z,985.04
2019-05-30T07:33:45.797Z,985.04
2019-05-30T07:34:46.144Z,985.00
2019-05-30T07:36:45.730Z,985.08
2019-05-30T07:37:46.664Z,985.03
2019-05-30T07:38:45.726Z,985.14
2019-05-30T07:39:45.780Z,985.12
2019-05-30T07:41:45.824Z,985.07
2019-05-30T07:42:45.775Z,985.08
2019-05-30T07:43:45.827Z,985.14
2019-05-30T07:44:45.832Z,985.13
2019-05-30T07:46:45.830Z,985.14
2019-05-30T07:47:45.797Z,985.09
2019-05-30T07:48:45.733Z,985.06
2019-05-30T07:49:45.790Z,985.02
2019-05-30T07:51:45.792Z,985.11
2019-05-30T07:52:45.797Z,985.19
2019-05-30T07:53:51.554Z,985.15
2019-05-30T07:54:45.828Z,985.22
2019-05-30T07:57:45.825Z,985.14
2019-05-30T07:58:45.829Z,985.09
2019-05-30T08:00:45.781Z,985.17
2019-05-30T08:02:45.809Z,985.13
2019-05-30T08:03:45.864Z,985.15
2019-05-30T08:04:47.038Z,985.17
2019-05-30T08:05:45.966Z,985.18
2019-05-30T08:07:45.809Z,985.13
2019-05-30T08:08:45.760Z,985.15
2019-05-30T08:09:45.831Z,985.15
2019-05-30T08:10:45.864Z,985.11
2019-05-30T08:12:45.915Z,985.08
2019-05-30T08:13:45.851Z,985.16
2019-05-30T08:14:45.868Z,985.14
2019-05-30T08:15:45.854Z,985.08
2019-05-30T08:43:45.902Z,985.08
2019-05-30T08:45:45.809Z,985.05
2019-05-30T08:46:45.884Z,984.98
2019-05-30T08:47:45.898Z,984.99
2019-05-30T08:48:45.901Z,985.05
2019-05-30T08:51:45.914Z,985.02
2019-05-30T08:52:45.817Z,985.08
2019-05-30T08:53:45.845Z,985.08
2019-05-30T08:54:45.888Z,985.08
2019-05-30T08:57:45.900Z,984.97
2019-05-30T08:58:45.875Z,985.02
2019-05-30T08:59:45.907Z,985.00
2019-05-30T09:00:45.884Z,984.93
2019-05-30T09:02:46.928Z,984.94
2019-05-30T09:03:46.276Z,984.87
2019-05-30T09:04:46.046Z,984.88
2019-05-30T09:05:59.309Z,984.93
2019-05-30T09:07:46.355Z,984.90
2019-05-30T09:08:46.389Z,984.84
2019-05-30T09:09:46.355Z,984.86
2019-05-30T09:10:46.500Z,984.83
2019-05-30T09:13:46.731Z,984.89
2019-05-30T09:14:46.933Z,984.98
2019-05-30T09:15:47.080Z,984.93
2019-05-30T09:16:46.556Z,984.99
2019-05-30T09:18:47.286Z,984.82
2019-05-30T09:19:47.417Z,984.84
2019-05-30T09:20:47.353Z,984.89
2019-05-30T09:21:45.946Z,984.94
2019-05-30T09:24:46.158Z,984.81
2019-05-30T09:25:49.017Z,984.81
2019-05-30T09:26:48.688Z,984.76
2019-05-30T09:27:46.655Z,984.81
2019-05-30T09:29:46.226Z,984.85
2019-05-30T09:30:46.498Z,984.79
2019-05-30T09:31:46.724Z,984.77
2019-05-30T09:32:46.986Z,984.74
2019-05-30T09:34:46.988Z,984.78
2019-05-30T09:35:46.988Z,984.78
2019-05-30T09:36:46.911Z,984.67
2019-05-30T09:37:46.449Z,984.78
2019-05-30T09:39:45.964Z,984.78
2019-05-30T09:40:45.936Z,984.78
2019-05-30T09:41:45.913Z,984.76
2019-05-30T09:42:46.922Z,984.73
2019-05-30T09:45:46.085Z,984.82
2019-05-30T09:46:46.982Z,984.79
2019-05-30T09:47:47.156Z,984.89
2019-05-30T09:48:46.693Z,984.83
2019-05-30T09:50:46.779Z,984.80
2019-05-30T09:51:46.976Z,984.79
2019-05-30T09:52:47.012Z,984.74
2019-05-30T09:53:46.082Z,984.88
2019-05-30T09:55:46.277Z,984.84
2019-05-30T09:56:46.564Z,984.83
2019-05-30T09:57:46.015Z,984.76
2019-05-30T09:58:46.145Z,984.79
2019-05-30T10:00:47.254Z,984.86
2019-05-30T10:01:46.090Z,984.84
2019-05-30T10:02:46.667Z,984.75
2019-05-30T10:03:46.541Z,984.79
2019-05-30T10:06:46.351Z,984.82
2019-05-30T10:07:47.393Z,984.80
2019-05-30T10:08:47.727Z,984.78
2019-05-30T10:09:47.089Z,984.79
2019-05-30T10:12:46.965Z,984.70
2019-05-30T10:13:47.480Z,984.77
2019-05-30T10:14:46.911Z,984.71
2019-05-30T10:15:46.923Z,984.86
2019-05-30T10:17:47.572Z,984.70
2019-05-30T10:18:47.245Z,984.65
2019-05-30T10:19:47.053Z,984.79
2019-05-30T10:20:47.679Z,984.78
2019-05-30T10:23:47.538Z,984.76
2019-05-30T10:24:47.541Z,984.75
2019-05-30T10:25:46.126Z,984.71
2019-05-30T10:26:47.112Z,984.68
2019-05-30T10:28:47.652Z,984.67
2019-05-30T10:29:47.527Z,984.64
2019-05-30T10:30:50.315Z,984.69
2019-05-30T10:31:46.520Z,984.73
2019-05-30T10:33:47.477Z,984.65
2019-05-30T10:34:46.626Z,984.54
2019-05-30T10:35:47.347Z,984.67
2019-05-30T10:36:47.257Z,984.64
2019-05-30T10:38:47.420Z,984.57
2019-05-30T10:39:47.263Z,984.61
2019-05-30T10:40:47.406Z,984.59
2019-05-30T10:41:47.188Z,984.61
2019-05-30T10:43:47.367Z,984.56
2019-05-30T10:44:47.503Z,984.55
2019-05-30T10:45:46.569Z,984.62
2019-05-30T10:46:47.228Z,984.56
2019-05-30T10:47:47.388Z,984.52
2019-05-30T10:49:46.847Z,984.50
2019-05-30T10:50:47.003Z,984.56
2019-05-30T10:51:46.739Z,984.53
2019-05-30T10:52:47.139Z,984.56
2019-05-30T10:54:46.735Z,984.54
2019-05-30T10:55:46.918Z,984.58
2019-05-30T10:56:47.063Z,984.53
2019-05-30T10:57:47.024Z,984.46
2019-05-30T10:59:47.256Z,984.51
2019-05-30T11:00:48.533Z,984.48
2019-05-30T11:01:47.101Z,984.42
2019-05-30T11:02:47.491Z,984.43
2019-05-30T11:04:47.296Z,984.44
2019-05-30T11:05:47.177Z,984.42
2019-05-30T11:07:01.282Z,984.42
2019-05-30T11:08:00.299Z,984.45
2019-05-30T11:10:46.390Z,984.40
2019-05-30T11:11:46.654Z,984.39
2019-05-30T11:12:46.657Z,984.33
2019-05-30T11:13:46.873Z,984.38
2019-05-30T11:15:47.080Z,984.33
2019-05-30T11:16:47.041Z,984.34
2019-05-30T11:17:47.237Z,984.31
2019-05-30T11:18:47.486Z,984.28
2019-05-30T11:20:46.053Z,984.27
2019-05-30T11:21:46.129Z,984.23
2019-05-30T11:22:46.065Z,984.25
2019-05-30T11:23:46.084Z,984.23
2019-05-30T11:25:46.048Z,984.23
2019-05-30T11:26:46.045Z,984.27
2019-05-30T11:27:46.119Z,984.31
2019-05-30T11:28:46.054Z,984.27
2019-05-30T11:30:46.088Z,984.30
2019-05-30T11:31:46.055Z,984.26
2019-05-30T11:32:46.058Z,984.27
2019-05-30T11:33:46.076Z,984.24
2019-05-30T11:35:46.063Z,984.17
2019-05-30T11:36:46.104Z,984.13
2019-05-30T11:37:46.122Z,984.11
2019-05-30T11:38:46.138Z,984.18
2019-05-30T11:40:46.139Z,984.07
2019-05-30T11:41:46.154Z,984.12
2019-05-30T11:42:46.106Z,984.12
2019-05-30T11:43:46.166Z,984.15
2019-05-30T11:45:46.139Z,984.09
2019-05-30T11:46:46.144Z,984.02
2019-05-30T11:47:46.060Z,984.09
2019-05-30T11:48:46.114Z,983.98
2019-05-30T11:50:46.138Z,983.96
2019-05-30T11:51:46.152Z,984.00
2019-05-30T11:52:46.156Z,983.96
2019-05-30T11:53:46.136Z,983.99
2019-05-30T11:55:46.133Z,983.94
2019-05-30T11:56:46.123Z,983.86
2019-05-30T11:57:46.185Z,983.97
2019-05-30T11:58:46.169Z,983.91
2019-05-30T12:00:46.159Z,983.96
2019-05-30T12:01:46.210Z,983.90
2019-05-30T12:02:46.162Z,983.92
2019-05-30T12:03:46.187Z,983.86
2019-05-30T12:05:46.157Z,983.88
2019-05-30T12:06:46.115Z,983.90
2019-05-30T12:07:46.198Z,983.91
2019-05-30T12:08:46.185Z,983.85
2019-05-30T12:10:46.183Z,983.87
2019-05-30T12:11:46.190Z,983.87
2019-05-30T12:12:46.177Z,983.91
2019-05-30T12:13:46.120Z,983.90
2019-05-30T12:15:46.152Z,983.85
2019-05-30T12:16:46.204Z,983.89
2019-05-30T12:17:46.176Z,983.89
2019-05-30T12:18:46.205Z,983.90
2019-05-30T12:21:46.238Z,983.91
2019-05-30T12:22:46.213Z,983.84
2019-05-30T12:23:46.205Z,983.83
2019-05-30T12:24:46.140Z,983.88
2019-05-30T12:27:46.134Z,983.88
2019-05-30T12:28:46.231Z,983.90
2019-05-30T12:29:46.169Z,983.88
2019-05-30T12:30:55.782Z,983.85
2019-05-30T12:32:46.225Z,983.81
2019-05-30T12:33:46.148Z,983.84
2019-05-30T12:34:46.189Z,983.78
2019-05-30T12:35:46.192Z,983.75
2019-05-30T12:37:54.912Z,983.79
2019-05-30T12:38:46.156Z,983.79
2019-05-30T12:39:46.223Z,983.87
2019-05-30T12:40:46.166Z,983.77
2019-05-30T12:42:46.230Z,983.77
2019-05-30T12:43:46.490Z,983.84
2019-05-30T12:44:46.199Z,983.84
2019-05-30T12:45:46.197Z,983.75
2019-05-30T12:47:46.203Z,983.76
2019-05-30T12:48:46.250Z,983.76
2019-05-30T12:49:46.237Z,983.73
2019-05-30T12:50:46.210Z,983.67
2019-05-30T12:52:46.210Z,983.70
2019-05-30T12:53:49.105Z,983.72
2019-05-30T12:54:46.191Z,983.78
2019-05-30T12:55:46.205Z,983.67
2019-05-30T12:58:46.326Z,983.65
2019-05-30T12:59:46.179Z,983.67
2019-05-30T13:00:46.216Z,983.82
2019-05-30T13:01:46.304Z,983.68
2019-05-30T13:03:46.187Z,983.64
2019-05-30T13:04:46.278Z,983.68
2019-05-30T13:05:46.249Z,983.72
2019-05-30T13:06:46.263Z,983.70
2019-05-30T13:08:46.268Z,983.79
2019-05-30T13:09:46.212Z,983.77
2019-05-30T13:10:46.263Z,983.72
2019-05-30T13:11:46.305Z,983.69
2019-05-30T13:13:46.225Z,983.69
2019-05-30T13:14:46.299Z,983.67
2019-05-30T13:15:46.284Z,983.65
2019-05-30T13:16:46.257Z,983.59
2019-05-30T13:19:46.257Z,983.61
2019-05-30T13:20:46.221Z,983.62
2019-05-30T13:21:46.374Z,983.66
2019-05-30T13:22:46.278Z,983.62
2019-05-30T13:24:46.300Z,983.62
2019-05-30T13:25:46.282Z,983.59
2019-05-30T13:26:46.299Z,983.53
2019-05-30T13:27:46.262Z,983.64
2019-05-30T13:30:46.305Z,983.56
2019-05-30T13:31:46.329Z,983.51
2019-05-30T13:32:46.324Z,983.54
2019-05-30T13:33:46.316Z,983.55
2019-05-30T13:35:46.294Z,983.50
2019-05-30T13:36:46.289Z,983.53
2019-05-30T13:37:46.305Z,983.46
2019-05-30T13:38:46.325Z,983.50
2019-05-30T13:41:46.283Z,983.52
2019-05-30T13:42:46.339Z,983.50
2019-05-30T13:43:46.275Z,983.53
2019-05-30T13:44:46.339Z,983.54
2019-05-30T13:46:46.325Z,983.53
2019-05-30T13:47:46.319Z,983.49
2019-05-30T13:48:46.304Z,983.44
2019-05-30T13:49:46.309Z,983.36
2019-05-30T13:51:46.290Z,983.45
2019-05-30T13:52:46.322Z,983.48
2019-05-30T13:53:46.370Z,983.43
2019-05-30T13:54:46.569Z,983.46
2019-05-30T13:57:46.359Z,983.46
2019-05-30T13:58:46.321Z,983.45
2019-05-30T13:59:46.364Z,983.48
2019-05-30T14:00:46.333Z,983.46
2019-05-30T14:02:46.402Z,983.44
2019-05-30T14:03:46.286Z,983.44
2019-05-30T14:04:46.332Z,983.34
2019-05-30T14:05:46.354Z,983.44
2019-05-30T14:07:46.373Z,983.41
2019-05-30T14:08:46.300Z,983.42
2019-05-30T14:09:46.379Z,983.45
2019-05-30T14:10:46.363Z,983.40
2019-05-30T14:13:46.377Z,983.36
2019-05-30T14:14:46.370Z,983.33
2019-05-30T14:15:46.353Z,983.39
2019-05-30T14:16:46.344Z,983.42
2019-05-30T14:18:46.414Z,983.39
2019-05-30T14:19:46.392Z,983.32
2019-05-30T14:20:46.394Z,983.36
2019-05-30T14:21:46.325Z,983.32
2019-05-30T14:23:46.322Z,983.35
2019-05-30T14:24:46.677Z,983.39
2019-05-30T14:25:46.429Z,983.37
2019-05-30T14:26:46.377Z,983.35
2019-05-30T14:28:46.675Z,983.35
2019-05-30T14:29:46.371Z,983.30
2019-05-30T14:30:46.430Z,983.25
2019-05-30T14:31:46.374Z,983.32
2019-05-30T14:33:46.327Z,983.34
2019-05-30T14:34:46.384Z,983.36
2019-05-30T14:35:46.339Z,983.34
2019-05-30T14:36:46.415Z,983.36
2019-05-30T14:38:57.945Z,983.39
2019-05-30T14:39:46.305Z,983.30
2019-05-30T14:40:46.400Z,983.38
2019-05-30T14:41:46.447Z,983.38
2019-05-30T14:43:46.435Z,983.43
2019-05-30T14:44:46.395Z,983.31
2019-05-30T14:45:46.431Z,983.38
2019-05-30T14:46:46.519Z,983.38
2019-05-30T14:48:46.414Z,983.36
2019-05-30T14:49:46.407Z,983.35
2019-05-30T14:50:46.389Z,983.37
2019-05-30T14:51:46.376Z,983.38
2019-05-30T14:53:46.401Z,983.37
2019-05-30T14:54:46.352Z,983.32
2019-05-30T14:55:46.419Z,983.38
2019-05-30T14:56:46.450Z,983.34
2019-05-30T14:58:46.423Z,983.34
2019-05-30T14:59:46.422Z,983.34
2019-05-30T15:00:46.409Z,983.34
2019-05-30T15:01:46.420Z,983.33
2019-05-30T15:03:46.415Z,983.28
2019-05-30T15:04:46.458Z,983.36
2019-05-30T15:05:46.414Z,983.34
2019-05-30T15:06:46.427Z,983.33
2019-05-30T15:08:46.446Z,983.20
2019-05-30T15:09:46.443Z,983.21
2019-05-30T15:10:46.464Z,983.17
2019-05-30T15:11:46.408Z,983.23
2019-05-30T15:13:46.463Z,983.25
2019-05-30T15:14:46.465Z,983.25
2019-05-30T15:15:46.446Z,983.14